sensor_id;sensor_type;location;lat;lon;timestamp;temperature;humidity
67777;DHT22;54576;52.020;5.536;2022-08-06T00:00:41;12.90;62.80
67777;DHT22;54576;52.020;5.536;2022-08-06T00:03:07;12.80;62.80
67777;DHT22;54576;52.020;5.536;2022-08-06T00:05:33;12.90;62.90
67777;DHT22;54576;52.020;5.536;2022-08-06T00:07:59;12.80;63.10
67777;DHT22;54576;52.020;5.536;2022-08-06T00:10:25;12.90;63.10
67777;DHT22;54576;52.020;5.536;2022-08-06T00:12:52;12.80;63.00
67777;DHT22;54576;52.020;5.536;2022-08-06T00:15:17;12.80;63.10
67777;DHT22;54576;52.020;5.536;2022-08-06T00:17:45;12.80;63.10
67777;DHT22;54576;52.020;5.536;2022-08-06T00:20:12;12.70;63.20
67777;DHT22;54576;52.020;5.536;2022-08-06T00:22:38;12.70;63.30
67777;DHT22;54576;52.020;5.536;2022-08-06T00:25:05;12.60;63.30
67777;DHT22;54576;52.020;5.536;2022-08-06T00:27:32;12.60;63.60
67777;DHT22;54576;52.020;5.536;2022-08-06T00:29:58;12.50;63.60
67777;DHT22;54576;52.020;5.536;2022-08-06T00:32:23;12.50;63.60
67777;DHT22;54576;52.020;5.536;2022-08-06T00:34:49;12.50;63.60
67777;DHT22;54576;52.020;5.536;2022-08-06T00:37:14;12.50;63.60
67777;DHT22;54576;52.020;5.536;2022-08-06T00:39:40;12.60;63.60
67777;DHT22;54576;52.020;5.536;2022-08-06T00:42:06;12.60;63.80
67777;DHT22;54576;52.020;5.536;2022-08-06T00:44:31;12.50;63.80
67777;DHT22;54576;52.020;5.536;2022-08-06T00:46:57;12.50;63.80
67777;DHT22;54576;52.020;5.536;2022-08-06T00:49:23;12.50;63.80
67777;DHT22;54576;52.020;5.536;2022-08-06T00:51:49;12.50;63.80
67777;DHT22;54576;52.020;5.536;2022-08-06T00:54:14;12.50;63.90
67777;DHT22;54576;52.020;5.536;2022-08-06T00:56:40;12.40;63.90
67777;DHT22;54576;52.020;5.536;2022-08-06T00:59:05;12.40;63.90
67777;DHT22;54576;52.020;5.536;2022-08-06T01:01:31;12.50;64.20
67777;DHT22;54576;52.020;5.536;2022-08-06T01:03:57;12.40;64.10
67777;DHT22;54576;52.020;5.536;2022-08-06T01:06:23;12.40;64.10
67777;DHT22;54576;52.020;5.536;2022-08-06T01:08:48;12.40;64.20
67777;DHT22;54576;52.020;5.536;2022-08-06T01:11:14;12.40;64.20
67777;DHT22;54576;52.020;5.536;2022-08-06T01:13:40;12.30;64.30
67777;DHT22;54576;52.020;5.536;2022-08-06T01:16:46;12.30;64.40
67777;DHT22;54576;52.020;5.536;2022-08-06T01:27:54;12.30;64.60
67777;DHT22;54576;52.020;5.536;2022-08-06T01:30:22;12.40;64.50
67777;DHT22;54576;52.020;5.536;2022-08-06T01:32:57;12.30;64.20
67777;DHT22;54576;52.020;5.536;2022-08-06T01:35:29;12.30;64.40
67777;DHT22;54576;52.020;5.536;2022-08-06T01:38:16;12.20;64.50
67777;DHT22;54576;52.020;5.536;2022-08-06T01:40:44;12.20;64.90
67777;DHT22;54576;52.020;5.536;2022-08-06T01:43:12;12.20;64.80
67777;DHT22;54576;52.020;5.536;2022-08-06T01:45:39;12.20;65.50
67777;DHT22;54576;52.020;5.536;2022-08-06T01:48:12;12.20;64.40
67777;DHT22;54576;52.020;5.536;2022-08-06T01:50:42;12.20;64.60
67777;DHT22;54576;52.020;5.536;2022-08-06T01:53:12;12.20;64.80
67777;DHT22;54576;52.020;5.536;2022-08-06T01:55:45;12.20;64.80
67777;DHT22;54576;52.020;5.536;2022-08-06T01:58:12;12.20;64.90
67777;DHT22;54576;52.020;5.536;2022-08-06T02:00:42;12.20;64.90
67777;DHT22;54576;52.020;5.536;2022-08-06T02:03:11;12.20;65.00
67777;DHT22;54576;52.020;5.536;2022-08-06T02:05:38;12.10;66.60
67777;DHT22;54576;52.020;5.536;2022-08-06T02:08:08;12.10;64.70
67777;DHT22;54576;52.020;5.536;2022-08-06T02:10:35;12.00;64.80
67777;DHT22;54576;52.020;5.536;2022-08-06T02:13:02;12.00;65.10
67777;DHT22;54576;52.020;5.536;2022-08-06T02:15:30;11.90;65.10
67777;DHT22;54576;52.020;5.536;2022-08-06T02:18:00;11.90;65.30
67777;DHT22;54576;52.020;5.536;2022-08-06T02:20:30;11.80;65.40
67777;DHT22;54576;52.020;5.536;2022-08-06T02:22:58;11.70;65.50
67777;DHT22;54576;52.020;5.536;2022-08-06T02:25:25;11.70;65.70
67777;DHT22;54576;52.020;5.536;2022-08-06T02:27:53;11.70;65.70
67777;DHT22;54576;52.020;5.536;2022-08-06T02:30:20;11.70;65.70
67777;DHT22;54576;52.020;5.536;2022-08-06T02:32:46;11.70;67.40
67777;DHT22;54576;52.020;5.536;2022-08-06T02:35:12;11.70;65.30
67777;DHT22;54576;52.020;5.536;2022-08-06T02:37:53;11.70;65.50
67777;DHT22;54576;52.020;5.536;2022-08-06T02:40:37;11.70;65.60
67777;DHT22;54576;52.020;5.536;2022-08-06T02:43:18;11.70;65.60
67777;DHT22;54576;52.020;5.536;2022-08-06T02:48:25;11.60;65.80
67777;DHT22;54576;52.020;5.536;2022-08-06T02:50:52;11.50;66.80
67777;DHT22;54576;52.020;5.536;2022-08-06T02:53:23;11.50;66.00
67777;DHT22;54576;52.020;5.536;2022-08-06T02:55:53;11.60;66.20
67777;DHT22;54576;52.020;5.536;2022-08-06T02:58:25;11.60;66.10
67777;DHT22;54576;52.020;5.536;2022-08-06T03:00:52;11.60;66.10
67777;DHT22;54576;52.020;5.536;2022-08-06T03:03:21;11.60;66.00
67777;DHT22;54576;52.020;5.536;2022-08-06T03:05:50;11.60;66.00
67777;DHT22;54576;52.020;5.536;2022-08-06T03:08:19;11.70;65.90
67777;DHT22;54576;52.020;5.536;2022-08-06T03:10:47;11.60;65.90
67777;DHT22;54576;52.020;5.536;2022-08-06T03:13:14;11.60;66.00
67777;DHT22;54576;52.020;5.536;2022-08-06T03:15:42;11.40;66.30
67777;DHT22;54576;52.020;5.536;2022-08-06T03:18:08;11.40;66.50
67777;DHT22;54576;52.020;5.536;2022-08-06T03:20:35;11.40;66.50
67777;DHT22;54576;52.020;5.536;2022-08-06T03:23:04;11.40;66.60
67777;DHT22;54576;52.020;5.536;2022-08-06T03:25:32;11.30;66.60
67777;DHT22;54576;52.020;5.536;2022-08-06T03:27:59;11.40;66.70
67777;DHT22;54576;52.020;5.536;2022-08-06T03:30:26;11.40;66.80
67777;DHT22;54576;52.020;5.536;2022-08-06T03:32:52;11.30;66.80
67777;DHT22;54576;52.020;5.536;2022-08-06T03:35:19;11.20;67.00
67777;DHT22;54576;52.020;5.536;2022-08-06T03:37:47;11.10;67.20
67777;DHT22;54576;52.020;5.536;2022-08-06T03:40:14;11.00;67.30
67777;DHT22;54576;52.020;5.536;2022-08-06T03:42:40;11.00;67.40
67777;DHT22;54576;52.020;5.536;2022-08-06T03:45:06;11.00;67.40
67777;DHT22;54576;52.020;5.536;2022-08-06T03:47:39;11.00;67.40
67777;DHT22;54576;52.020;5.536;2022-08-06T03:50:15;11.10;67.30
67777;DHT22;54576;52.020;5.536;2022-08-06T03:52:47;11.10;67.10
67777;DHT22;54576;52.020;5.536;2022-08-06T03:55:17;11.20;67.00
67777;DHT22;54576;52.020;5.536;2022-08-06T03:57:47;11.20;67.00
67777;DHT22;54576;52.020;5.536;2022-08-06T04:00:16;11.20;67.00
67777;DHT22;54576;52.020;5.536;2022-08-06T04:02:47;11.30;66.90
67777;DHT22;54576;52.020;5.536;2022-08-06T04:05:17;11.30;66.90
67777;DHT22;54576;52.020;5.536;2022-08-06T04:07:43;11.20;66.90
67777;DHT22;54576;52.020;5.536;2022-08-06T04:10:09;11.10;67.00
67777;DHT22;54576;52.020;5.536;2022-08-06T04:12:36;11.00;67.10
67777;DHT22;54576;52.020;5.536;2022-08-06T04:15:02;11.00;67.20
67777;DHT22;54576;52.020;5.536;2022-08-06T04:17:29;11.00;67.40
67777;DHT22;54576;52.020;5.536;2022-08-06T04:19:55;11.00;67.30
67777;DHT22;54576;52.020;5.536;2022-08-06T04:22:22;11.00;67.50
67777;DHT22;54576;52.020;5.536;2022-08-06T04:24:47;11.00;67.40
67777;DHT22;54576;52.020;5.536;2022-08-06T04:27:14;11.10;67.60
67777;DHT22;54576;52.020;5.536;2022-08-06T04:29:40;11.10;67.60
67777;DHT22;54576;52.020;5.536;2022-08-06T04:32:08;11.00;67.50
67777;DHT22;54576;52.020;5.536;2022-08-06T04:34:38;11.00;67.60
67777;DHT22;54576;52.020;5.536;2022-08-06T04:37:04;10.90;67.70
67777;DHT22;54576;52.020;5.536;2022-08-06T04:39:30;10.90;67.80
67777;DHT22;54576;52.020;5.536;2022-08-06T04:41:57;10.90;67.70
67777;DHT22;54576;52.020;5.536;2022-08-06T04:44:23;11.00;67.90
67777;DHT22;54576;52.020;5.536;2022-08-06T04:46:50;11.00;67.80
67777;DHT22;54576;52.020;5.536;2022-08-06T04:49:16;11.10;67.80
67777;DHT22;54576;52.020;5.536;2022-08-06T04:51:46;11.00;67.70
67777;DHT22;54576;52.020;5.536;2022-08-06T04:54:13;11.00;67.80
67777;DHT22;54576;52.020;5.536;2022-08-06T04:56:39;11.00;67.90
67777;DHT22;54576;52.020;5.536;2022-08-06T04:59:05;11.00;68.00
67777;DHT22;54576;52.020;5.536;2022-08-06T05:01:31;11.10;68.00
67777;DHT22;54576;52.020;5.536;2022-08-06T05:03:56;11.20;68.00
67777;DHT22;54576;52.020;5.536;2022-08-06T05:06:29;11.30;67.90
67777;DHT22;54576;52.020;5.536;2022-08-06T05:09:05;11.40;67.80
67777;DHT22;54576;52.020;5.536;2022-08-06T05:14:29;11.80;67.50
67777;DHT22;54576;52.020;5.536;2022-08-06T05:16:56;12.00;67.20
67777;DHT22;54576;52.020;5.536;2022-08-06T05:19:36;12.30;67.70
67777;DHT22;54576;52.020;5.536;2022-08-06T05:22:06;12.70;66.20
67777;DHT22;54576;52.020;5.536;2022-08-06T05:24:32;13.10;65.80
67777;DHT22;54576;52.020;5.536;2022-08-06T05:26:59;13.70;65.40
67777;DHT22;54576;52.020;5.536;2022-08-06T05:29:24;14.60;64.80
67777;DHT22;54576;52.020;5.536;2022-08-06T05:31:58;15.60;63.80
67777;DHT22;54576;52.020;5.536;2022-08-06T05:34:23;16.50;63.20
67777;DHT22;54576;52.020;5.536;2022-08-06T05:36:49;17.30;62.00
67777;DHT22;54576;52.020;5.536;2022-08-06T05:39:14;17.90;61.40
67777;DHT22;54576;52.020;5.536;2022-08-06T05:41:40;18.40;60.90
67777;DHT22;54576;52.020;5.536;2022-08-06T05:44:07;18.90;60.70
67777;DHT22;54576;52.020;5.536;2022-08-06T05:46:44;19.30;61.50
67777;DHT22;54576;52.020;5.536;2022-08-06T05:52:13;20.10;60.40
67777;DHT22;54576;52.020;5.536;2022-08-06T05:54:56;20.50;60.60
67777;DHT22;54576;52.020;5.536;2022-08-06T06:00:07;21.10;60.40
67777;DHT22;54576;52.020;5.536;2022-08-06T06:02:38;21.30;60.30
67777;DHT22;54576;52.020;5.536;2022-08-06T06:05:05;21.50;60.30
67777;DHT22;54576;52.020;5.536;2022-08-06T06:07:32;21.70;60.30
67777;DHT22;54576;52.020;5.536;2022-08-06T06:09:58;21.90;60.40
67777;DHT22;54576;52.020;5.536;2022-08-06T06:12:24;22.10;60.40
67777;DHT22;54576;52.020;5.536;2022-08-06T06:14:50;22.20;60.30
67777;DHT22;54576;52.020;5.536;2022-08-06T06:23:20;22.40;60.20
67777;DHT22;54576;52.020;5.536;2022-08-06T06:28:40;22.50;60.00
67777;DHT22;54576;52.020;5.536;2022-08-06T06:31:28;22.60;60.60
67777;DHT22;54576;52.020;5.536;2022-08-06T06:34:20;22.50;60.20
67777;DHT22;54576;52.020;5.536;2022-08-06T06:42:13;22.60;59.70
67777;DHT22;54576;52.020;5.536;2022-08-06T06:44:49;22.60;60.30
67777;DHT22;54576;52.020;5.536;2022-08-06T06:47:17;22.60;59.70
67777;DHT22;54576;52.020;5.536;2022-08-06T06:50:00;22.50;59.90
67777;DHT22;54576;52.020;5.536;2022-08-06T06:52:40;22.50;59.50
67777;DHT22;54576;52.020;5.536;2022-08-06T06:55:35;22.40;59.30
67777;DHT22;54576;52.020;5.536;2022-08-06T06:58:08;22.50;59.20
67777;DHT22;54576;52.020;5.536;2022-08-06T07:00:39;22.60;59.00
67777;DHT22;54576;52.020;5.536;2022-08-06T07:03:06;22.40;58.80
67777;DHT22;54576;52.020;5.536;2022-08-06T07:05:33;22.20;58.70
67777;DHT22;54576;52.020;5.536;2022-08-06T07:08:03;22.00;57.90
67777;DHT22;54576;52.020;5.536;2022-08-06T07:10:30;22.00;58.30
67777;DHT22;54576;52.020;5.536;2022-08-06T07:12:57;22.10;57.90
67777;DHT22;54576;52.020;5.536;2022-08-06T07:15:25;22.00;57.50
67777;DHT22;54576;52.020;5.536;2022-08-06T07:17:51;22.00;56.80
67777;DHT22;54576;52.020;5.536;2022-08-06T07:20:23;21.80;56.60
67777;DHT22;54576;52.020;5.536;2022-08-06T07:22:51;21.80;56.20
67777;DHT22;54576;52.020;5.536;2022-08-06T07:25:18;21.70;55.80
67777;DHT22;54576;52.020;5.536;2022-08-06T07:27:48;21.60;55.50
67777;DHT22;54576;52.020;5.536;2022-08-06T07:30:16;21.40;55.30
67777;DHT22;54576;52.020;5.536;2022-08-06T07:32:43;21.20;55.40
67777;DHT22;54576;52.020;5.536;2022-08-06T07:35:10;21.00;55.40
67777;DHT22;54576;52.020;5.536;2022-08-06T07:37:40;21.00;55.40
67777;DHT22;54576;52.020;5.536;2022-08-06T07:40:09;20.80;55.00
67777;DHT22;54576;52.020;5.536;2022-08-06T07:42:37;20.70;55.00
67777;DHT22;54576;52.020;5.536;2022-08-06T07:45:06;20.30;54.30
67777;DHT22;54576;52.020;5.536;2022-08-06T07:47:39;20.20;54.70
67777;DHT22;54576;52.020;5.536;2022-08-06T07:50:07;20.00;54.40
67777;DHT22;54576;52.020;5.536;2022-08-06T07:52:34;19.90;54.90
67777;DHT22;54576;52.020;5.536;2022-08-06T07:55:01;19.70;54.90
67777;DHT22;54576;52.020;5.536;2022-08-06T07:57:27;19.50;55.50
67777;DHT22;54576;52.020;5.536;2022-08-06T07:59:53;19.50;54.90
67777;DHT22;54576;52.020;5.536;2022-08-06T08:02:19;19.50;54.20
67777;DHT22;54576;52.020;5.536;2022-08-06T08:04:45;19.50;54.30
67777;DHT22;54576;52.020;5.536;2022-08-06T08:07:30;19.50;54.70
67777;DHT22;54576;52.020;5.536;2022-08-06T08:09:58;19.60;53.90
67777;DHT22;54576;52.020;5.536;2022-08-06T08:12:25;19.70;54.90
67777;DHT22;54576;52.020;5.536;2022-08-06T08:14:52;19.70;53.60
67777;DHT22;54576;52.020;5.536;2022-08-06T08:17:18;19.80;53.80
67777;DHT22;54576;52.020;5.536;2022-08-06T08:19:43;19.80;53.70
67777;DHT22;54576;52.020;5.536;2022-08-06T08:22:15;20.00;53.40
67777;DHT22;54576;52.020;5.536;2022-08-06T08:24:43;20.00;52.70
67777;DHT22;54576;52.020;5.536;2022-08-06T08:27:10;20.00;52.60
67777;DHT22;54576;52.020;5.536;2022-08-06T08:29:40;20.00;52.80
67777;DHT22;54576;52.020;5.536;2022-08-06T08:32:07;20.10;53.10
67777;DHT22;54576;52.020;5.536;2022-08-06T08:34:33;20.10;53.00
67777;DHT22;54576;52.020;5.536;2022-08-06T08:36:59;20.10;53.10
67777;DHT22;54576;52.020;5.536;2022-08-06T08:39:24;20.10;53.00
67777;DHT22;54576;52.020;5.536;2022-08-06T08:42:09;20.10;53.00
67777;DHT22;54576;52.020;5.536;2022-08-06T08:44:35;20.30;53.10
67777;DHT22;54576;52.020;5.536;2022-08-06T08:47:03;20.40;52.90
67777;DHT22;54576;52.020;5.536;2022-08-06T08:49:38;20.60;53.10
67777;DHT22;54576;52.020;5.536;2022-08-06T08:52:08;20.80;52.10
67777;DHT22;54576;52.020;5.536;2022-08-06T08:54:36;20.80;52.70
67777;DHT22;54576;52.020;5.536;2022-08-06T08:57:04;20.90;52.60
67777;DHT22;54576;52.020;5.536;2022-08-06T08:59:30;21.00;52.10
67777;DHT22;54576;52.020;5.536;2022-08-06T09:01:57;21.00;52.00
67777;DHT22;54576;52.020;5.536;2022-08-06T09:04:23;21.00;51.90
67777;DHT22;54576;52.020;5.536;2022-08-06T09:06:49;21.00;51.70
67777;DHT22;54576;52.020;5.536;2022-08-06T09:09:15;20.90;51.60
67777;DHT22;54576;52.020;5.536;2022-08-06T09:11:41;21.00;52.20
67777;DHT22;54576;52.020;5.536;2022-08-06T09:14:08;20.90;52.20
67777;DHT22;54576;52.020;5.536;2022-08-06T09:16:35;20.80;52.40
67777;DHT22;54576;52.020;5.536;2022-08-06T09:19:03;20.70;52.80
67777;DHT22;54576;52.020;5.536;2022-08-06T09:21:30;20.80;52.90
67777;DHT22;54576;52.020;5.536;2022-08-06T09:23:56;21.00;52.50
67777;DHT22;54576;52.020;5.536;2022-08-06T09:26:22;21.10;52.30
67777;DHT22;54576;52.020;5.536;2022-08-06T09:28:47;21.10;51.50
67777;DHT22;54576;52.020;5.536;2022-08-06T09:34:01;21.10;52.30
67777;DHT22;54576;52.020;5.536;2022-08-06T09:36:27;21.10;49.20
67777;DHT22;54576;52.020;5.536;2022-08-06T09:38:58;21.10;51.00
67777;DHT22;54576;52.020;5.536;2022-08-06T09:41:26;21.20;51.10
67777;DHT22;54576;52.020;5.536;2022-08-06T09:43:54;21.30;51.10
67777;DHT22;54576;52.020;5.536;2022-08-06T09:46:44;21.30;50.50
67777;DHT22;54576;52.020;5.536;2022-08-06T09:49:12;21.20;49.00
67777;DHT22;54576;52.020;5.536;2022-08-06T09:51:38;21.30;50.80
67777;DHT22;54576;52.020;5.536;2022-08-06T09:54:08;21.30;50.50
67777;DHT22;54576;52.020;5.536;2022-08-06T09:56:42;21.30;50.10
67777;DHT22;54576;52.020;5.536;2022-08-06T09:59:09;21.40;50.20
67777;DHT22;54576;52.020;5.536;2022-08-06T10:01:43;21.60;50.20
67777;DHT22;54576;52.020;5.536;2022-08-06T10:04:31;21.80;49.90
67777;DHT22;54576;52.020;5.536;2022-08-06T10:06:59;22.00;48.00
67777;DHT22;54576;52.020;5.536;2022-08-06T10:09:25;22.00;49.20
67777;DHT22;54576;52.020;5.536;2022-08-06T10:11:51;21.90;48.30
67777;DHT22;54576;52.020;5.536;2022-08-06T10:14:25;21.80;48.40
67777;DHT22;54576;52.020;5.536;2022-08-06T10:17:07;21.80;48.20
67777;DHT22;54576;52.020;5.536;2022-08-06T10:19:34;21.60;47.40
67777;DHT22;54576;52.020;5.536;2022-08-06T10:24:44;21.60;49.30
67777;DHT22;54576;52.020;5.536;2022-08-06T10:27:25;21.70;49.70
67777;DHT22;54576;52.020;5.536;2022-08-06T10:29:55;21.90;48.90
67777;DHT22;54576;52.020;5.536;2022-08-06T10:32:33;21.90;48.60
67777;DHT22;54576;52.020;5.536;2022-08-06T10:35:03;22.00;48.50
67777;DHT22;54576;52.020;5.536;2022-08-06T10:37:31;21.90;49.30
67777;DHT22;54576;52.020;5.536;2022-08-06T10:39:58;21.90;47.10
67777;DHT22;54576;52.020;5.536;2022-08-06T10:42:25;21.80;41.70
67777;DHT22;54576;52.020;5.536;2022-08-06T10:44:52;21.80;48.40
67777;DHT22;54576;52.020;5.536;2022-08-06T10:47:18;21.80;47.80
67777;DHT22;54576;52.020;5.536;2022-08-06T10:49:44;21.70;48.00
67777;DHT22;54576;52.020;5.536;2022-08-06T10:52:10;21.70;47.90
67777;DHT22;54576;52.020;5.536;2022-08-06T10:54:37;21.90;47.00
67777;DHT22;54576;52.020;5.536;2022-08-06T10:57:02;22.00;47.00
67777;DHT22;54576;52.020;5.536;2022-08-06T10:59:28;22.10;47.60
67777;DHT22;54576;52.020;5.536;2022-08-06T11:02:16;22.10;47.30
67777;DHT22;54576;52.020;5.536;2022-08-06T11:05:03;22.10;47.30
67777;DHT22;54576;52.020;5.536;2022-08-06T11:13:04;22.00;47.50
67777;DHT22;54576;52.020;5.536;2022-08-06T11:15:37;22.00;46.20
67777;DHT22;54576;52.020;5.536;2022-08-06T11:18:12;22.20;46.80
67777;DHT22;54576;52.020;5.536;2022-08-06T11:20:39;22.30;43.30
67777;DHT22;54576;52.020;5.536;2022-08-06T11:25:42;22.50;45.70
67777;DHT22;54576;52.020;5.536;2022-08-06T11:28:10;22.60;46.20
67777;DHT22;54576;52.020;5.536;2022-08-06T11:33:09;22.60;46.40
67777;DHT22;54576;52.020;5.536;2022-08-06T11:38:03;22.40;46.70
67777;DHT22;54576;52.020;5.536;2022-08-06T11:41:01;22.50;46.70
67777;DHT22;54576;52.020;5.536;2022-08-06T11:46:31;22.60;45.10
67777;DHT22;54576;52.020;5.536;2022-08-06T11:57:17;22.60;46.30
67777;DHT22;54576;52.020;5.536;2022-08-06T12:02:15;22.70;45.20
67777;DHT22;54576;52.020;5.536;2022-08-06T12:04:43;22.80;45.60
67777;DHT22;54576;52.020;5.536;2022-08-06T12:07:21;22.60;45.40
67777;DHT22;54576;52.020;5.536;2022-08-06T12:10:10;22.60;44.20
67777;DHT22;54576;52.020;5.536;2022-08-06T12:12:50;22.50;43.90
67777;DHT22;54576;52.020;5.536;2022-08-06T12:22:58;22.70;43.00
67777;DHT22;54576;52.020;5.536;2022-08-06T12:25:31;22.80;44.00
67777;DHT22;54576;52.020;5.536;2022-08-06T12:27:58;22.80;43.40
67777;DHT22;54576;52.020;5.536;2022-08-06T12:30:24;22.80;43.30
67777;DHT22;54576;52.020;5.536;2022-08-06T12:32:59;22.80;43.10
67777;DHT22;54576;52.020;5.536;2022-08-06T12:35:25;22.80;39.80
67777;DHT22;54576;52.020;5.536;2022-08-06T12:37:51;22.70;43.50
67777;DHT22;54576;52.020;5.536;2022-08-06T12:40:21;22.80;44.10
67777;DHT22;54576;52.020;5.536;2022-08-06T12:42:54;22.90;43.60
67777;DHT22;54576;52.020;5.536;2022-08-06T12:45:22;23.10;43.90
67777;DHT22;54576;52.020;5.536;2022-08-06T12:47:57;23.10;43.40
67777;DHT22;54576;52.020;5.536;2022-08-06T12:50:25;23.20;43.40
67777;DHT22;54576;52.020;5.536;2022-08-06T12:55:29;23.20;42.50
67777;DHT22;54576;52.020;5.536;2022-08-06T12:57:55;23.10;43.00
67777;DHT22;54576;52.020;5.536;2022-08-06T13:00:21;23.00;43.00
67777;DHT22;54576;52.020;5.536;2022-08-06T13:02:48;23.00;43.60
67777;DHT22;54576;52.020;5.536;2022-08-06T13:05:14;23.10;43.50
67777;DHT22;54576;52.020;5.536;2022-08-06T13:07:41;23.10;43.70
67777;DHT22;54576;52.020;5.536;2022-08-06T13:10:11;23.10;44.10
67777;DHT22;54576;52.020;5.536;2022-08-06T13:12:38;23.10;42.00
67777;DHT22;54576;52.020;5.536;2022-08-06T13:15:14;23.20;43.90
67777;DHT22;54576;52.020;5.536;2022-08-06T13:17:41;23.20;43.30
67777;DHT22;54576;52.020;5.536;2022-08-06T13:20:07;23.30;43.80
67777;DHT22;54576;52.020;5.536;2022-08-06T13:22:51;23.30;44.00
67777;DHT22;54576;52.020;5.536;2022-08-06T13:25:16;23.30;39.70
67777;DHT22;54576;52.020;5.536;2022-08-06T13:27:45;23.10;43.10
67777;DHT22;54576;52.020;5.536;2022-08-06T13:30:11;23.10;43.50
67777;DHT22;54576;52.020;5.536;2022-08-06T13:32:37;23.00;43.30
67777;DHT22;54576;52.020;5.536;2022-08-06T13:35:07;22.90;43.40
67777;DHT22;54576;52.020;5.536;2022-08-06T13:37:50;22.80;43.10
67777;DHT22;54576;52.020;5.536;2022-08-06T13:40:17;22.70;43.90
67777;DHT22;54576;52.020;5.536;2022-08-06T13:42:50;22.60;44.50
67777;DHT22;54576;52.020;5.536;2022-08-06T13:45:23;22.70;43.90
67777;DHT22;54576;52.020;5.536;2022-08-06T13:47:50;22.60;44.20
67777;DHT22;54576;52.020;5.536;2022-08-06T13:50:18;22.50;44.60
67777;DHT22;54576;52.020;5.536;2022-08-06T13:52:45;22.40;44.30
67777;DHT22;54576;52.020;5.536;2022-08-06T13:55:10;22.30;44.40
67777;DHT22;54576;52.020;5.536;2022-08-06T13:57:36;22.30;44.70
67777;DHT22;54576;52.020;5.536;2022-08-06T14:00:04;22.20;44.80
67777;DHT22;54576;52.020;5.536;2022-08-06T14:02:32;22.20;44.50
67777;DHT22;54576;52.020;5.536;2022-08-06T14:04:58;22.40;44.30
67777;DHT22;54576;52.020;5.536;2022-08-06T14:07:24;22.50;44.30
67777;DHT22;54576;52.020;5.536;2022-08-06T14:09:49;22.40;43.70
67777;DHT22;54576;52.020;5.536;2022-08-06T14:12:15;22.30;43.90
67777;DHT22;54576;52.020;5.536;2022-08-06T14:14:40;22.30;44.30
67777;DHT22;54576;52.020;5.536;2022-08-06T14:17:06;22.20;44.50
67777;DHT22;54576;52.020;5.536;2022-08-06T14:19:32;22.20;44.50
67777;DHT22;54576;52.020;5.536;2022-08-06T14:21:57;22.20;44.80
67777;DHT22;54576;52.020;5.536;2022-08-06T14:24:23;22.20;45.80
67777;DHT22;54576;52.020;5.536;2022-08-06T14:26:49;22.40;44.80
67777;DHT22;54576;52.020;5.536;2022-08-06T14:29:15;22.50;44.70
67777;DHT22;54576;52.020;5.536;2022-08-06T14:31:41;22.80;44.30
67777;DHT22;54576;52.020;5.536;2022-08-06T14:34:07;22.80;43.50
67777;DHT22;54576;52.020;5.536;2022-08-06T14:36:32;22.80;43.60
67777;DHT22;54576;52.020;5.536;2022-08-06T14:38:58;22.90;43.40
67777;DHT22;54576;52.020;5.536;2022-08-06T14:41:24;22.90;43.70
67777;DHT22;54576;52.020;5.536;2022-08-06T14:44:09;23.00;43.40
67777;DHT22;54576;52.020;5.536;2022-08-06T14:46:54;23.00;43.10
67777;DHT22;54576;52.020;5.536;2022-08-06T14:49:20;23.00;43.30
67777;DHT22;54576;52.020;5.536;2022-08-06T14:51:46;23.00;42.50
67777;DHT22;54576;52.020;5.536;2022-08-06T14:54:12;23.10;43.00
67777;DHT22;54576;52.020;5.536;2022-08-06T14:56:37;23.10;42.60
67777;DHT22;54576;52.020;5.536;2022-08-06T14:59:03;23.10;42.40
67777;DHT22;54576;52.020;5.536;2022-08-06T15:01:29;23.10;42.30
67777;DHT22;54576;52.020;5.536;2022-08-06T15:03:55;23.20;42.00
67777;DHT22;54576;52.020;5.536;2022-08-06T15:06:20;23.10;42.20
67777;DHT22;54576;52.020;5.536;2022-08-06T15:08:46;23.10;42.40
67777;DHT22;54576;52.020;5.536;2022-08-06T15:11:11;23.30;42.70
67777;DHT22;54576;52.020;5.536;2022-08-06T15:13:37;23.30;42.30
67777;DHT22;54576;52.020;5.536;2022-08-06T15:16:04;23.40;42.60
67777;DHT22;54576;52.020;5.536;2022-08-06T15:18:29;23.40;42.40
67777;DHT22;54576;52.020;5.536;2022-08-06T15:20:55;23.40;42.60
67777;DHT22;54576;52.020;5.536;2022-08-06T15:23:21;23.50;42.70
67777;DHT22;54576;52.020;5.536;2022-08-06T15:25:47;23.50;42.70
67777;DHT22;54576;52.020;5.536;2022-08-06T15:28:12;23.60;42.70
67777;DHT22;54576;52.020;5.536;2022-08-06T15:30:41;23.30;42.20
67777;DHT22;54576;52.020;5.536;2022-08-06T15:33:06;23.10;42.40
67777;DHT22;54576;52.020;5.536;2022-08-06T15:35:32;23.00;42.60
67777;DHT22;54576;52.020;5.536;2022-08-06T15:38:00;22.90;43.00
67777;DHT22;54576;52.020;5.536;2022-08-06T15:40:26;22.80;43.20
67777;DHT22;54576;52.020;5.536;2022-08-06T15:42:51;22.70;43.00
67777;DHT22;54576;52.020;5.536;2022-08-06T15:45:20;22.60;42.90
67777;DHT22;54576;52.020;5.536;2022-08-06T15:47:45;22.60;43.20
67777;DHT22;54576;52.020;5.536;2022-08-06T15:50:11;22.70;43.30
67777;DHT22;54576;52.020;5.536;2022-08-06T15:52:37;22.80;43.40
67777;DHT22;54576;52.020;5.536;2022-08-06T15:55:04;22.80;42.70
67777;DHT22;54576;52.020;5.536;2022-08-06T15:57:29;22.80;42.60
67777;DHT22;54576;52.020;5.536;2022-08-06T15:59:55;22.80;42.80
67777;DHT22;54576;52.020;5.536;2022-08-06T16:02:21;22.90;42.60
67777;DHT22;54576;52.020;5.536;2022-08-06T16:04:46;22.90;42.80
67777;DHT22;54576;52.020;5.536;2022-08-06T16:07:13;22.80;42.60
67777;DHT22;54576;52.020;5.536;2022-08-06T16:09:39;22.80;42.80
67777;DHT22;54576;52.020;5.536;2022-08-06T16:12:05;22.80;42.80
67777;DHT22;54576;52.020;5.536;2022-08-06T16:14:31;22.80;42.40
67777;DHT22;54576;52.020;5.536;2022-08-06T16:16:58;22.80;42.30
67777;DHT22;54576;52.020;5.536;2022-08-06T16:19:24;22.70;42.80
67777;DHT22;54576;52.020;5.536;2022-08-06T16:21:51;22.80;42.80
67777;DHT22;54576;52.020;5.536;2022-08-06T16:24:17;22.80;42.80
67777;DHT22;54576;52.020;5.536;2022-08-06T16:26:43;22.80;42.50
67777;DHT22;54576;52.020;5.536;2022-08-06T16:29:10;22.70;42.70
67777;DHT22;54576;52.020;5.536;2022-08-06T16:31:36;22.70;42.80
67777;DHT22;54576;52.020;5.536;2022-08-06T16:34:02;22.60;42.80
67777;DHT22;54576;52.020;5.536;2022-08-06T16:36:28;22.60;42.60
67777;DHT22;54576;52.020;5.536;2022-08-06T16:38:53;22.60;42.70
67777;DHT22;54576;52.020;5.536;2022-08-06T16:41:19;22.60;42.80
67777;DHT22;54576;52.020;5.536;2022-08-06T16:43:47;22.60;42.60
67777;DHT22;54576;52.020;5.536;2022-08-06T16:46:15;22.60;42.70
67777;DHT22;54576;52.020;5.536;2022-08-06T16:48:40;22.60;42.50
67777;DHT22;54576;52.020;5.536;2022-08-06T16:51:06;22.60;43.00
67777;DHT22;54576;52.020;5.536;2022-08-06T16:53:32;22.50;42.80
67777;DHT22;54576;52.020;5.536;2022-08-06T16:55:58;22.40;43.00